createdAt,value
2022-08-31T00:01:45.930Z,18.10
2022-08-31T00:04:16.713Z,18.15
2022-08-31T00:06:51.418Z,18.04
2022-08-31T00:09:25.012Z,17.99
2022-08-31T00:11:55.738Z,18.03
2022-08-31T00:14:26.473Z,17.97
2022-08-31T00:16:57.513Z,17.84
2022-08-31T00:19:28.458Z,17.73
2022-08-31T00:21:59.207Z,17.69
2022-08-31T00:24:31.062Z,17.63
2022-08-31T00:27:02.463Z,17.64
2022-08-31T00:29:33.358Z,17.75
2022-08-31T00:32:04.636Z,17.88
2022-08-31T00:34:35.538Z,17.99
2022-08-31T00:37:06.302Z,18.08
2022-08-31T00:39:37.045Z,18.14
2022-08-31T00:42:09.719Z,18.19
2022-08-31T00:44:40.858Z,18.22
2022-08-31T00:47:11.706Z,18.24
2022-08-31T00:49:46.626Z,18.26
2022-08-31T00:52:21.798Z,18.16
2022-08-31T00:54:58.018Z,18.02
2022-08-31T00:57:34.495Z,17.96
2022-08-31T01:00:11.001Z,18.00
2022-08-31T01:02:42.312Z,18.00
2022-08-31T01:05:14.350Z,17.97
2022-08-31T01:07:47.824Z,18.00
2022-08-31T01:10:22.110Z,18.05
2022-08-31T01:12:55.827Z,18.10
2022-08-31T01:15:29.006Z,18.13
2022-08-31T01:18:02.982Z,18.14
2022-08-31T01:20:48.541Z,18.13
2022-08-31T01:23:24.212Z,18.12
2022-08-31T01:25:57.647Z,18.12
2022-08-31T01:28:28.782Z,18.06
2022-08-31T01:31:07.744Z,18.03
2022-08-31T01:33:40.209Z,18.03
2022-08-31T01:36:15.981Z,18.04
2022-08-31T01:38:52.981Z,18.07
2022-08-31T01:41:25.450Z,18.10
2022-08-31T01:43:57.133Z,18.12
2022-08-31T01:46:27.863Z,18.12
2022-08-31T01:48:58.731Z,18.10
2022-08-31T01:51:29.725Z,18.07
2022-08-31T01:54:00.509Z,18.02
2022-08-31T01:56:35.207Z,17.99
2022-08-31T01:59:09.906Z,17.98
2022-08-31T02:02:03.874Z,18.00
2022-08-31T02:04:34.740Z,18.04
2022-08-31T02:07:05.519Z,18.03
2022-08-31T02:09:37.631Z,18.02
2022-08-31T02:12:09.804Z,18.00
2022-08-31T02:14:43.867Z,17.96
2022-08-31T02:17:14.903Z,17.94
2022-08-31T02:19:45.699Z,17.89
2022-08-31T02:22:18.182Z,17.82
2022-08-31T02:24:48.964Z,17.71
2022-08-31T02:27:20.683Z,17.64
2022-08-31T02:29:51.627Z,17.62
2022-08-31T02:32:22.341Z,17.53
2022-08-31T02:34:53.763Z,17.48
2022-08-31T02:37:24.688Z,17.38
2022-08-31T02:39:55.444Z,17.29
2022-08-31T02:42:30.001Z,17.28
2022-08-31T02:45:04.019Z,17.31
2022-08-31T02:47:34.945Z,17.35
2022-08-31T02:50:28.688Z,17.35
2022-08-31T02:52:59.708Z,17.27
2022-08-31T02:55:30.743Z,17.31
2022-08-31T02:58:01.610Z,17.42
2022-08-31T03:00:33.338Z,17.35
2022-08-31T03:03:04.506Z,17.55
2022-08-31T03:05:35.753Z,17.60
2022-08-31T03:08:06.796Z,17.62
2022-08-31T03:10:38.118Z,17.59
2022-08-31T03:13:09.568Z,17.56
2022-08-31T03:15:40.315Z,17.54
2022-08-31T03:18:11.418Z,17.52
2022-08-31T03:20:42.462Z,17.41
2022-08-31T03:23:15.296Z,17.21
2022-08-31T03:25:46.383Z,17.16
2022-08-31T03:28:17.597Z,17.21
2022-08-31T03:31:00.956Z,17.27
2022-08-31T03:33:31.802Z,17.32
2022-08-31T03:36:04.681Z,17.30
2022-08-31T03:38:36.171Z,17.24
2022-08-31T03:41:07.250Z,17.13
2022-08-31T03:43:38.908Z,16.84
2022-08-31T03:46:12.021Z,16.53
2022-08-31T03:48:45.183Z,16.26
2022-08-31T03:51:16.988Z,16.06
2022-08-31T03:53:48.021Z,15.92
2022-08-31T03:56:22.855Z,15.90
2022-08-31T03:58:54.758Z,16.13
2022-08-31T04:01:54.577Z,16.23
2022-08-31T04:04:44.149Z,16.26
2022-08-31T04:07:42.451Z,16.44
2022-08-31T04:10:32.476Z,16.57
2022-08-31T04:13:32.251Z,16.70
2022-08-31T04:16:23.918Z,16.71
2022-08-31T04:19:11.305Z,16.69
2022-08-31T04:21:50.219Z,16.69
2022-08-31T04:24:19.849Z,16.75
2022-08-31T04:26:53.878Z,16.83
2022-08-31T04:29:24.834Z,16.90
2022-08-31T04:31:56.809Z,16.98
2022-08-31T04:34:27.811Z,17.08
2022-08-31T04:36:58.598Z,17.12
2022-08-31T04:39:32.346Z,17.07
2022-08-31T04:42:05.701Z,17.07
2022-08-31T04:44:36.668Z,17.08
2022-08-31T04:47:08.183Z,17.15
2022-08-31T04:49:39.258Z,17.21
2022-08-31T04:52:10.657Z,17.25
2022-08-31T04:54:41.500Z,17.31
2022-08-31T04:57:12.226Z,17.35
2022-08-31T04:59:43.080Z,17.36
2022-08-31T05:02:33.441Z,17.44
2022-08-31T05:05:13.101Z,17.52
2022-08-31T05:07:46.848Z,17.54
2022-08-31T05:10:17.993Z,17.63
2022-08-31T05:12:49.427Z,17.60
2022-08-31T05:15:20.621Z,17.56
2022-08-31T05:17:52.050Z,17.45
2022-08-31T05:20:22.768Z,17.42
2022-08-31T05:22:53.569Z,17.41
2022-08-31T05:25:24.307Z,17.41
2022-08-31T05:27:56.415Z,17.38
2022-08-31T05:30:27.440Z,17.44
2022-08-31T05:33:06.587Z,17.60
2022-08-31T05:35:38.675Z,17.79
2022-08-31T05:38:09.519Z,17.94
2022-08-31T05:40:40.245Z,18.02
2022-08-31T05:43:11.677Z,18.09
2022-08-31T05:45:46.617Z,18.19
2022-08-31T05:48:18.410Z,18.29
2022-08-31T05:50:49.046Z,18.37
2022-08-31T05:53:24.053Z,18.37
2022-08-31T05:56:01.559Z,18.34
2022-08-31T05:58:34.340Z,18.41
2022-08-31T06:01:05.545Z,18.44
2022-08-31T06:03:56.940Z,18.54
2022-08-31T06:06:28.377Z,18.63
2022-08-31T06:08:59.634Z,18.71
2022-08-31T06:11:34.687Z,18.83
2022-08-31T06:14:06.795Z,18.89
2022-08-31T06:16:39.218Z,18.95
2022-08-31T06:19:10.090Z,19.07
2022-08-31T06:21:50.353Z,19.20
2022-08-31T06:24:27.277Z,19.36
2022-08-31T06:27:01.696Z,19.47
2022-08-31T06:29:35.450Z,19.57
2022-08-31T06:32:10.288Z,19.66
2022-08-31T06:34:44.791Z,19.76
2022-08-31T06:37:23.671Z,19.79
2022-08-31T06:40:13.732Z,19.87
2022-08-31T06:42:47.379Z,19.86
2022-08-31T06:45:57.924Z,19.67
2022-08-31T06:48:48.195Z,19.59
2022-08-31T06:51:19.344Z,19.64
2022-08-31T06:53:50.554Z,19.76
2022-08-31T06:56:40.674Z,19.90
2022-08-31T06:59:30.282Z,19.99
2022-08-31T07:02:36.649Z,20.08
2022-08-31T07:05:11.513Z,20.14
2022-08-31T07:07:46.309Z,20.16
2022-08-31T07:10:18.882Z,20.14
2022-08-31T07:12:49.728Z,20.15
2022-08-31T07:15:20.549Z,20.18
2022-08-31T07:17:51.946Z,20.16
2022-08-31T07:20:24.335Z,20.15
2022-08-31T07:22:55.292Z,20.05
2022-08-31T07:25:39.286Z,20.11
2022-08-31T07:28:11.185Z,20.17
2022-08-31T07:30:45.824Z,20.24
2022-08-31T07:33:19.230Z,20.27
2022-08-31T07:35:55.660Z,20.34
2022-08-31T07:39:10.239Z,20.45
2022-08-31T07:42:09.197Z,20.61
2022-08-31T07:44:41.348Z,20.66
2022-08-31T07:47:14.216Z,20.69
2022-08-31T07:49:51.319Z,20.67
2022-08-31T07:52:47.798Z,20.65
2022-08-31T07:55:39.324Z,20.79
2022-08-31T07:58:17.541Z,20.91
2022-08-31T08:00:52.237Z,21.00
2022-08-31T08:03:23.099Z,21.04
2022-08-31T08:06:15.469Z,21.04
2022-08-31T08:09:27.057Z,20.95
2022-08-31T08:12:12.555Z,20.75
2022-08-31T08:14:54.912Z,20.60
2022-08-31T08:17:51.540Z,20.60
2022-08-31T08:20:37.756Z,20.60
2022-08-31T08:23:18.317Z,20.50
2022-08-31T08:26:21.190Z,20.48
2022-08-31T08:29:08.984Z,20.46
2022-08-31T08:31:54.470Z,20.58
2022-08-31T08:34:32.544Z,20.68
2022-08-31T08:37:08.937Z,20.63
2022-08-31T08:39:42.402Z,20.60
2022-08-31T08:42:25.809Z,20.69
2022-08-31T08:44:56.568Z,20.80
2022-08-31T08:47:37.733Z,20.80
2022-08-31T08:50:11.968Z,20.87
2022-08-31T08:52:46.990Z,20.92
2022-08-31T08:55:22.393Z,20.96
2022-08-31T08:57:56.110Z,21.03
2022-08-31T09:00:30.150Z,21.05
2022-08-31T09:03:12.467Z,21.05
2022-08-31T09:06:14.995Z,21.14
2022-08-31T09:09:13.037Z,21.29
2022-08-31T09:12:05.181Z,21.35
2022-08-31T09:14:50.629Z,21.34
2022-08-31T09:17:39.671Z,21.34
2022-08-31T09:20:13.091Z,21.36
2022-08-31T09:22:50.174Z,21.42
2022-08-31T09:25:32.791Z,21.46
2022-08-31T09:28:34.043Z,21.61
2022-08-31T09:31:04.937Z,21.71
2022-08-31T09:33:48.539Z,21.71
2022-08-31T09:36:22.651Z,21.61
2022-08-31T09:38:53.949Z,21.53
2022-08-31T09:41:37.528Z,21.58
2022-08-31T09:44:34.287Z,21.54
2022-08-31T09:47:14.903Z,21.50
2022-08-31T09:49:57.946Z,21.51
2022-08-31T09:52:48.255Z,21.59
2022-08-31T09:55:25.439Z,21.64
2022-08-31T09:57:59.288Z,21.67
2022-08-31T10:00:41.392Z,21.76
2022-08-31T10:03:21.133Z,21.84
2022-08-31T10:05:54.989Z,21.95
2022-08-31T10:08:41.261Z,22.08
2022-08-31T10:11:17.438Z,22.22
2022-08-31T10:13:57.292Z,22.33
2022-08-31T10:16:33.741Z,22.36
2022-08-31T10:19:07.907Z,22.41
2022-08-31T10:21:52.370Z,22.48
2022-08-31T10:24:32.878Z,22.42
2022-08-31T10:27:14.983Z,22.30
2022-08-31T10:29:56.256Z,22.16
2022-08-31T10:32:39.474Z,22.05
2022-08-31T10:35:19.536Z,22.02
2022-08-31T10:37:59.795Z,21.97
2022-08-31T10:40:34.099Z,21.88
2022-08-31T10:43:11.223Z,21.89
2022-08-31T10:45:45.478Z,21.92
2022-08-31T10:48:17.314Z,21.91
2022-08-31T10:50:53.912Z,22.05
2022-08-31T10:53:40.983Z,22.09
2022-08-31T10:56:26.395Z,22.19
2022-08-31T10:59:09.902Z,22.32
2022-08-31T11:01:53.155Z,22.42
2022-08-31T11:04:49.733Z,22.47
2022-08-31T11:07:35.745Z,22.50
2022-08-31T11:10:19.946Z,22.45
2022-08-31T11:12:57.664Z,22.43
2022-08-31T11:15:44.701Z,22.47
2022-08-31T11:18:40.048Z,22.50
2022-08-31T11:21:45.187Z,22.63
2022-08-31T11:24:43.438Z,22.72
2022-08-31T11:27:23.640Z,22.68
2022-08-31T11:30:00.747Z,22.64
2022-08-31T11:32:40.731Z,22.65
2022-08-31T11:35:12.585Z,22.63
2022-08-31T11:37:52.177Z,22.65
2022-08-31T11:41:00.157Z,22.64
2022-08-31T11:43:46.042Z,22.54
2022-08-31T11:46:58.468Z,22.43
2022-08-31T11:49:55.887Z,22.17
2022-08-31T11:52:43.430Z,22.05
2022-08-31T11:55:21.684Z,22.03
2022-08-31T11:58:27.198Z,22.05
2022-08-31T12:01:03.131Z,22.02
2022-08-31T12:03:51.500Z,21.98
2022-08-31T12:07:07.419Z,21.95
2022-08-31T12:10:03.084Z,21.95
2022-08-31T12:12:56.109Z,21.92
2022-08-31T12:15:36.265Z,21.94
2022-08-31T12:18:31.168Z,21.98
2022-08-31T12:21:26.731Z,22.06
2022-08-31T12:24:16.552Z,22.09
2022-08-31T12:27:14.010Z,22.14
2022-08-31T12:29:45.528Z,22.25
2022-08-31T12:32:32.585Z,22.26
2022-08-31T12:35:15.795Z,22.32
2022-08-31T12:37:58.135Z,22.35
2022-08-31T12:40:31.466Z,22.41
2022-08-31T12:43:06.877Z,22.46
2022-08-31T12:46:11.110Z,22.45
2022-08-31T12:49:09.365Z,22.43
2022-08-31T12:51:44.384Z,22.43
2022-08-31T12:54:49.592Z,22.40
2022-08-31T12:57:35.347Z,22.39
2022-08-31T13:00:13.075Z,22.34
2022-08-31T13:02:47.173Z,22.26
2022-08-31T13:05:22.226Z,22.21
2022-08-31T13:07:53.719Z,22.18
2022-08-31T13:10:34.685Z,22.13
2022-08-31T13:13:08.345Z,22.09
2022-08-31T13:15:42.451Z,22.01
2022-08-31T13:18:15.727Z,21.93
2022-08-31T13:20:47.212Z,21.89
2022-08-31T13:23:28.235Z,21.80
2022-08-31T13:26:15.138Z,21.74
2022-08-31T13:28:52.036Z,21.73
2022-08-31T13:31:25.440Z,21.71
2022-08-31T13:34:01.814Z,21.65
2022-08-31T13:36:35.388Z,21.61
2022-08-31T13:39:18.114Z,21.64
2022-08-31T13:41:59.024Z,21.66
2022-08-31T13:44:31.848Z,21.70
2022-08-31T13:47:06.188Z,21.72
2022-08-31T13:49:39.456Z,21.73
2022-08-31T13:52:18.815Z,21.77
2022-08-31T13:55:01.142Z,21.81
2022-08-31T13:57:35.858Z,21.81
2022-08-31T14:00:30.354Z,21.79
2022-08-31T14:03:46.737Z,21.76
2022-08-31T14:06:27.525Z,21.81
2022-08-31T14:09:03.641Z,21.82
2022-08-31T14:11:35.626Z,21.83
2022-08-31T14:14:07.429Z,21.83
2022-08-31T14:16:43.797Z,21.82
2022-08-31T14:19:35.460Z,21.87
2022-08-31T14:22:27.216Z,21.90
2022-08-31T14:25:00.697Z,21.94
2022-08-31T14:27:32.698Z,21.91
2022-08-31T14:30:02.350Z,21.87
2022-08-31T14:32:33.426Z,21.85
2022-08-31T14:35:11.767Z,21.87
2022-08-31T14:37:44.232Z,21.84
2022-08-31T14:40:15.484Z,21.87
2022-08-31T14:42:46.506Z,21.89
2022-08-31T14:45:19.792Z,21.90
2022-08-31T14:47:52.513Z,21.86
2022-08-31T14:50:27.140Z,21.80
2022-08-31T14:52:58.509Z,21.77
2022-08-31T14:55:31.107Z,21.74
2022-08-31T14:58:06.956Z,21.71
2022-08-31T15:00:40.334Z,21.65
2022-08-31T15:03:12.168Z,21.59
2022-08-31T15:05:41.930Z,21.49
2022-08-31T15:08:12.666Z,21.44
2022-08-31T15:10:43.327Z,21.39
2022-08-31T15:13:14.311Z,21.35
2022-08-31T15:15:47.729Z,21.26
2022-08-31T15:18:24.509Z,21.21
2022-08-31T15:20:55.923Z,21.15
2022-08-31T15:23:26.715Z,21.14
2022-08-31T15:26:06.537Z,21.13
2022-08-31T15:28:41.993Z,21.10
2022-08-31T15:31:20.178Z,21.02
2022-08-31T15:33:55.373Z,20.96
2022-08-31T15:36:29.422Z,20.91
2022-08-31T15:39:00.102Z,20.88
2022-08-31T15:41:31.111Z,20.88
2022-08-31T15:44:10.551Z,20.89
2022-08-31T15:46:59.184Z,20.86
2022-08-31T15:49:30.052Z,20.82
2022-08-31T15:52:01.092Z,20.78
2022-08-31T15:54:35.767Z,20.75
2022-08-31T15:57:08.031Z,20.71
2022-08-31T15:59:41.236Z,20.70
2022-08-31T16:02:13.931Z,20.69
2022-08-31T16:04:46.172Z,20.70
2022-08-31T16:07:16.144Z,20.70
2022-08-31T16:09:46.932Z,20.66
2022-08-31T16:12:19.227Z,20.62
2022-08-31T16:14:51.482Z,20.61
2022-08-31T16:17:22.738Z,20.57
2022-08-31T16:19:53.565Z,20.57
2022-08-31T16:22:25.733Z,20.57
2022-08-31T16:25:01.478Z,20.57
2022-08-31T16:27:33.944Z,20.57
2022-08-31T16:30:05.234Z,20.56
2022-08-31T16:32:35.882Z,20.58
2022-08-31T16:35:07.586Z,20.60
2022-08-31T16:37:38.394Z,20.62
2022-08-31T16:40:11.726Z,20.63
2022-08-31T16:42:42.583Z,20.64
2022-08-31T16:45:14.010Z,20.64
2022-08-31T16:47:44.699Z,20.65
2022-08-31T16:50:16.201Z,20.62
2022-08-31T16:52:47.357Z,20.59
2022-08-31T16:55:18.019Z,20.57
2022-08-31T16:57:48.704Z,20.56
2022-08-31T17:00:20.416Z,20.54
2022-08-31T17:03:02.225Z,20.51
2022-08-31T17:05:33.289Z,20.51
2022-08-31T17:08:04.410Z,20.53
2022-08-31T17:10:35.134Z,20.50
2022-08-31T17:13:05.899Z,20.46
2022-08-31T17:15:36.630Z,20.45
2022-08-31T17:18:07.283Z,20.43
2022-08-31T17:20:40.987Z,20.38
2022-08-31T17:23:12.218Z,20.35
2022-08-31T17:25:43.249Z,20.33
2022-08-31T17:28:14.128Z,20.32
2022-08-31T17:30:46.664Z,20.30
2022-08-31T17:33:17.591Z,20.29
2022-08-31T17:35:48.255Z,20.27
2022-08-31T17:38:19.053Z,20.25
2022-08-31T17:40:49.954Z,20.23
2022-08-31T17:43:22.016Z,20.20
2022-08-31T17:45:55.954Z,20.19
2022-08-31T17:48:26.842Z,20.16
2022-08-31T17:50:58.177Z,20.13
2022-08-31T17:53:29.039Z,20.11
2022-08-31T17:55:59.976Z,20.08
2022-08-31T17:58:30.955Z,20.05
2022-08-31T18:01:03.314Z,20.03
2022-08-31T18:03:34.110Z,20.01
2022-08-31T18:06:05.201Z,19.98
2022-08-31T18:08:37.986Z,19.95
2022-08-31T18:11:08.973Z,19.91
2022-08-31T18:13:41.651Z,19.88
2022-08-31T18:16:14.647Z,19.85
2022-08-31T18:18:49.505Z,19.81
2022-08-31T18:21:22.988Z,19.79
2022-08-31T18:23:54.746Z,19.77
2022-08-31T18:26:28.382Z,19.74
2022-08-31T18:28:59.409Z,19.73
2022-08-31T18:31:31.453Z,19.69
2022-08-31T18:34:01.485Z,19.67
2022-08-31T18:36:36.063Z,19.63
2022-08-31T18:39:09.103Z,19.61
2022-08-31T18:41:58.054Z,19.58
2022-08-31T18:44:46.557Z,19.55
2022-08-31T18:47:17.432Z,19.50
2022-08-31T18:49:48.795Z,19.43
2022-08-31T18:52:22.855Z,19.39
2022-08-31T18:54:55.379Z,19.34
2022-08-31T18:57:28.067Z,19.32
2022-08-31T19:00:03.227Z,19.33
2022-08-31T19:02:36.324Z,19.34
2022-08-31T19:05:08.992Z,19.38
2022-08-31T19:07:40.747Z,19.39
2022-08-31T19:10:14.301Z,19.40
2022-08-31T19:12:45.627Z,19.41
2022-08-31T19:15:16.738Z,19.43
2022-08-31T19:17:49.426Z,19.43
2022-08-31T19:20:20.706Z,19.45
2022-08-31T19:22:51.588Z,19.44
2022-08-31T19:25:22.942Z,19.41
2022-08-31T19:27:54.953Z,19.39
2022-08-31T19:30:28.378Z,19.33
2022-08-31T19:32:59.898Z,19.32
2022-08-31T19:35:31.050Z,19.29
2022-08-31T19:38:02.119Z,19.27
2022-08-31T19:40:37.409Z,19.23
2022-08-31T19:46:15.959Z,19.17
2022-08-31T19:48:49.694Z,19.16
2022-08-31T19:51:22.876Z,19.15
2022-08-31T19:53:55.126Z,19.18
2022-08-31T19:56:31.257Z,19.19
2022-08-31T19:59:02.330Z,19.19
2022-08-31T20:01:34.315Z,19.16
2022-08-31T20:04:07.495Z,19.12
2022-08-31T20:06:39.258Z,19.09
2022-08-31T20:09:11.210Z,19.05
2022-08-31T20:11:42.555Z,19.02
2022-08-31T20:14:13.497Z,18.99
2022-08-31T20:16:45.213Z,18.97
2022-08-31T20:19:20.813Z,18.94
2022-08-31T20:21:53.045Z,18.90
2022-08-31T20:24:26.781Z,18.87
2022-08-31T20:27:01.717Z,18.82
2022-08-31T20:29:40.810Z,18.74
2022-08-31T20:32:11.709Z,18.72
2022-08-31T20:34:43.563Z,18.71
2022-08-31T20:37:14.391Z,18.72
2022-08-31T20:39:45.067Z,18.72
2022-08-31T20:42:16.088Z,18.67
2022-08-31T20:44:48.972Z,18.65
2022-08-31T20:47:37.703Z,18.62
2022-08-31T20:50:11.469Z,18.55
2022-08-31T20:52:42.525Z,18.48
2022-08-31T20:55:14.242Z,18.44
2022-08-31T20:57:46.872Z,18.40
2022-08-31T21:00:19.733Z,18.34
2022-08-31T21:02:52.113Z,18.31
2022-08-31T21:05:38.062Z,18.28
2022-08-31T21:08:09.735Z,18.27
2022-08-31T21:10:41.438Z,18.26
2022-08-31T21:13:13.514Z,18.26
2022-08-31T21:15:44.079Z,18.21
2022-08-31T21:18:17.332Z,18.12
2022-08-31T21:20:49.020Z,18.03
2022-08-31T21:23:19.806Z,17.95
2022-08-31T21:25:50.888Z,17.91
2022-08-31T21:28:22.132Z,17.85
2022-08-31T21:30:53.561Z,17.78
2022-08-31T21:33:24.446Z,17.70
2022-08-31T21:36:04.763Z,17.66
2022-08-31T21:38:35.775Z,17.69
2022-08-31T21:41:09.201Z,17.74
2022-08-31T21:43:40.438Z,17.78
2022-08-31T21:46:13.448Z,17.80
2022-08-31T21:48:45.842Z,17.78
2022-08-31T21:51:20.750Z,17.68
2022-08-31T21:53:54.422Z,17.54
2022-08-31T21:56:28.127Z,17.41
2022-08-31T21:59:00.681Z,17.25
2022-08-31T22:01:33.068Z,17.10
2022-08-31T22:04:06.999Z,17.02
2022-08-31T22:06:38.847Z,17.01
2022-08-31T22:09:15.793Z,17.01
2022-08-31T22:11:50.784Z,17.01
2022-08-31T22:14:26.152Z,16.96
2022-08-31T22:16:59.210Z,16.90
2022-08-31T22:19:33.954Z,16.88
2022-08-31T22:22:06.979Z,16.89
2022-08-31T22:24:39.507Z,16.89
2022-08-31T22:27:10.114Z,16.85
2022-08-31T22:29:42.069Z,16.81
2022-08-31T22:32:15.223Z,16.85
2022-08-31T22:34:47.323Z,16.89
2022-08-31T22:37:17.987Z,16.92
2022-08-31T22:39:55.283Z,16.94
2022-08-31T22:42:25.924Z,16.90
2022-08-31T22:44:56.685Z,16.77
2022-08-31T22:47:27.427Z,16.71
2022-08-31T22:49:58.310Z,16.69
2022-08-31T22:52:28.948Z,16.71
2022-08-31T22:54:59.936Z,16.72
2022-08-31T22:57:30.635Z,16.72
2022-08-31T23:00:01.406Z,16.71
2022-08-31T23:02:32.124Z,16.70
2022-08-31T23:05:03.751Z,16.69
2022-08-31T23:07:36.006Z,16.61
2022-08-31T23:10:06.443Z,16.53
2022-08-31T23:12:35.577Z,16.44
2022-08-31T23:15:10.068Z,16.34
2022-08-31T23:17:46.094Z,16.28
2022-08-31T23:20:21.339Z,16.29
2022-08-31T23:22:53.300Z,16.54
2022-08-31T23:25:25.703Z,16.84
2022-08-31T23:27:56.349Z,17.08
2022-08-31T23:30:27.851Z,17.26
2022-08-31T23:33:02.183Z,17.39
2022-08-31T23:35:34.685Z,17.43
2022-08-31T23:38:05.447Z,17.43
2022-08-31T23:40:36.249Z,17.49
2022-08-31T23:43:08.997Z,17.53
2022-08-31T23:45:42.414Z,17.55
2022-08-31T23:48:13.788Z,17.62
2022-08-31T23:50:44.919Z,17.69
2022-08-31T23:53:17.481Z,17.75
2022-08-31T23:55:48.697Z,17.80
2022-08-31T23:58:20.027Z,17.82
